createdAt,value
2023-04-23T00:00:40.605Z,83.50
2023-04-23T00:03:12.851Z,72.63
2023-04-23T00:05:39.553Z,62.95
2023-04-23T00:08:06.395Z,82.50
2023-04-23T00:10:33.063Z,74.97
2023-04-23T00:12:59.834Z,78.13
2023-04-23T00:15:26.908Z,78.93
2023-04-23T00:17:53.476Z,71.85
2023-04-23T00:20:20.250Z,78.45
2023-04-23T00:22:46.721Z,79.47
2023-04-23T00:25:13.200Z,78.85
2023-04-23T00:27:39.777Z,78.45
2023-04-23T00:30:06.901Z,74.00
2023-04-23T00:32:33.754Z,79.72
2023-04-23T00:35:01.044Z,83.87
2023-04-23T00:37:27.802Z,83.45
2023-04-23T00:39:54.355Z,76.05
2023-04-23T00:42:21.576Z,70.85
2023-04-23T00:44:49.607Z,75.63
2023-04-23T00:47:16.891Z,76.07
2023-04-23T00:49:44.001Z,68.00
2023-04-23T00:52:10.588Z,70.70
2023-04-23T00:54:37.207Z,65.82
2023-04-23T00:57:03.787Z,73.60
2023-04-23T00:59:31.749Z,74.93
2023-04-23T01:01:59.059Z,70.95
2023-04-23T01:04:28.158Z,74.00
2023-04-23T01:06:55.632Z,74.30
2023-04-23T01:09:22.912Z,78.68
2023-04-23T01:11:51.274Z,71.77
2023-04-23T01:14:17.852Z,57.90
2023-04-23T01:16:44.440Z,75.93
2023-04-23T01:19:11.457Z,74.68
2023-04-23T01:21:42.503Z,74.10
2023-04-23T01:24:10.145Z,81.43
2023-04-23T01:26:36.746Z,77.78
2023-04-23T01:29:03.554Z,67.90
2023-04-23T01:31:30.944Z,58.65
2023-04-23T01:33:58.755Z,72.15
2023-04-23T01:36:25.772Z,68.83
2023-04-23T01:38:53.806Z,80.03
2023-04-23T01:41:20.375Z,76.43
2023-04-23T01:43:47.013Z,72.72
2023-04-23T01:46:13.761Z,66.72
2023-04-23T01:48:40.689Z,80.90
2023-04-23T01:51:07.563Z,76.32
2023-04-23T01:53:34.640Z,71.82
2023-04-23T01:56:02.258Z,62.70
2023-04-23T01:58:28.873Z,67.00
2023-04-23T02:00:56.222Z,60.63
2023-04-23T02:03:23.489Z,68.97
2023-04-23T02:05:51.595Z,59.50
2023-04-23T02:08:18.296Z,53.58
2023-04-23T02:10:44.972Z,56.05
2023-04-23T02:13:11.473Z,57.47
2023-04-23T02:15:38.231Z,61.25
2023-04-23T02:18:04.921Z,60.38
2023-04-23T02:20:31.533Z,61.35
2023-04-23T02:22:58.227Z,59.45
2023-04-23T02:25:24.731Z,57.13
2023-04-23T02:27:51.261Z,55.63
2023-04-23T02:30:17.923Z,65.85
2023-04-23T02:32:44.568Z,61.67
2023-04-23T02:35:11.112Z,57.88
2023-04-23T02:37:37.645Z,59.03
2023-04-23T02:40:08.117Z,56.65
2023-04-23T02:42:34.740Z,69.00
2023-04-23T02:45:01.356Z,60.58
2023-04-23T02:47:28.168Z,58.47
2023-04-23T02:49:54.660Z,61.03
2023-04-23T02:52:21.323Z,54.30
2023-04-23T02:54:48.474Z,55.25
2023-04-23T02:57:16.373Z,57.08
2023-04-23T02:59:43.316Z,56.03
2023-04-23T03:02:10.172Z,52.50
2023-04-23T03:04:36.907Z,53.03
2023-04-23T03:07:03.484Z,50.47
2023-04-23T03:09:32.033Z,54.40
2023-04-23T03:11:58.626Z,50.50
2023-04-23T03:14:25.372Z,49.80
2023-04-23T03:16:52.050Z,51.60
2023-04-23T03:19:18.745Z,51.80
2023-04-23T03:21:45.260Z,54.67
2023-04-23T03:24:13.409Z,57.45
2023-04-23T03:26:39.977Z,57.00
2023-04-23T03:29:07.413Z,55.65
2023-04-23T03:31:34.078Z,52.78
2023-04-23T03:34:01.138Z,58.22
2023-04-23T03:36:32.719Z,62.88
2023-04-23T03:39:02.192Z,52.60
2023-04-23T03:41:35.941Z,57.22
2023-04-23T03:44:03.059Z,50.78
2023-04-23T03:46:39.980Z,52.00
2023-04-23T03:49:06.770Z,48.47
2023-04-23T03:51:33.436Z,49.07
2023-04-23T03:53:59.968Z,57.25
2023-04-23T03:56:35.289Z,62.15
2023-04-23T03:59:11.998Z,59.45
2023-04-23T04:01:38.556Z,52.47
2023-04-23T04:04:05.543Z,61.20
2023-04-23T04:06:33.163Z,66.82
2023-04-23T04:08:59.834Z,58.95
2023-04-23T04:11:26.826Z,57.72
2023-04-23T04:13:53.379Z,62.20
2023-04-23T04:16:19.922Z,58.20
2023-04-23T04:18:46.446Z,56.42
2023-04-23T04:21:13.078Z,56.58
2023-04-23T04:23:39.830Z,59.92
2023-04-23T04:26:07.916Z,59.05
2023-04-23T04:28:36.353Z,63.53
2023-04-23T04:31:03.973Z,56.25
2023-04-23T04:33:30.627Z,61.53
2023-04-23T04:35:57.431Z,55.88
2023-04-23T04:38:23.951Z,51.47
2023-04-23T04:40:50.549Z,53.27
2023-04-23T04:43:17.176Z,53.38
2023-04-23T04:45:44.735Z,50.22
2023-04-23T04:48:11.396Z,66.03
2023-04-23T04:50:37.927Z,61.85
2023-04-23T04:53:04.456Z,73.20
2023-04-23T04:55:31.185Z,72.90
2023-04-23T04:57:57.756Z,74.70
2023-04-23T05:00:28.269Z,70.97
2023-04-23T05:02:55.830Z,60.70
2023-04-23T05:05:23.824Z,63.13
2023-04-23T05:07:50.482Z,67.40
2023-04-23T05:10:17.139Z,73.90
2023-04-23T05:12:43.938Z,64.20
2023-04-23T05:15:16.445Z,70.85
2023-04-23T05:17:43.099Z,73.47
2023-04-23T05:20:10.961Z,81.97
2023-04-23T05:22:41.515Z,75.90
2023-04-23T05:25:09.415Z,76.22
2023-04-23T05:27:36.082Z,68.95
2023-04-23T05:30:03.641Z,74.67
2023-04-23T05:32:30.272Z,71.93
2023-04-23T05:34:56.818Z,68.90
2023-04-23T05:37:23.321Z,68.25
2023-04-23T05:39:49.846Z,72.22
2023-04-23T05:42:16.340Z,75.37
2023-04-23T05:44:43.004Z,71.45
2023-04-23T05:47:11.347Z,66.70
2023-04-23T05:49:37.954Z,71.07
2023-04-23T05:52:04.797Z,69.55
2023-04-23T05:54:31.649Z,72.30
2023-04-23T05:56:58.811Z,68.55
2023-04-23T05:59:25.721Z,67.55
2023-04-23T06:01:52.551Z,64.80
2023-04-23T06:04:19.479Z,57.45
2023-04-23T06:06:46.382Z,58.43
2023-04-23T06:09:12.952Z,61.40
2023-04-23T06:11:39.517Z,61.05
2023-04-23T06:14:06.139Z,62.22
2023-04-23T06:16:32.704Z,65.35
2023-04-23T06:18:59.283Z,59.67
2023-04-23T06:21:27.209Z,58.58
2023-04-23T06:23:54.563Z,58.40
2023-04-23T06:26:21.247Z,56.85
2023-04-23T06:28:49.517Z,57.08
2023-04-23T06:31:26.929Z,55.17
2023-04-23T06:33:53.490Z,58.78
2023-04-23T06:36:20.086Z,57.55
2023-04-23T06:38:46.594Z,54.08
2023-04-23T06:41:13.163Z,53.88
2023-04-23T06:43:39.728Z,55.57
2023-04-23T06:46:28.036Z,55.30
2023-04-23T06:48:54.593Z,53.00
2023-04-23T06:51:21.210Z,50.88
2023-04-23T06:53:47.798Z,55.30
2023-04-23T06:56:14.631Z,48.60
2023-04-23T06:58:41.250Z,47.35
2023-04-23T07:01:16.299Z,42.63
2023-04-23T07:03:45.236Z,43.78
2023-04-23T07:06:12.041Z,42.67
2023-04-23T07:08:39.724Z,45.17
2023-04-23T07:11:06.301Z,42.05
2023-04-23T07:13:32.791Z,39.67
2023-04-23T07:15:59.560Z,38.22
2023-04-23T07:18:26.343Z,36.03
2023-04-23T07:20:53.155Z,36.20
2023-04-23T07:23:19.797Z,35.40
2023-04-23T07:25:46.295Z,33.40
2023-04-23T07:28:12.840Z,31.00
2023-04-23T07:30:39.406Z,31.75
2023-04-23T07:33:06.071Z,31.10
2023-04-23T07:35:32.616Z,30.90
2023-04-23T07:37:59.104Z,29.95
2023-04-23T07:40:25.749Z,31.83
2023-04-23T07:42:52.559Z,28.35
2023-04-23T07:45:19.670Z,29.30
2023-04-23T07:47:49.235Z,28.77
2023-04-23T07:50:15.906Z,27.23
2023-04-23T07:52:42.576Z,27.90
2023-04-23T07:55:09.693Z,26.08
2023-04-23T07:57:36.279Z,27.03
2023-04-23T08:00:03.606Z,23.60
2023-04-23T08:02:38.526Z,25.70
2023-04-23T08:05:05.646Z,22.27
2023-04-23T08:07:32.269Z,25.88
2023-04-23T08:10:02.835Z,20.43
2023-04-23T08:12:30.681Z,21.65
2023-04-23T08:14:57.190Z,21.63
2023-04-23T08:17:30.391Z,20.08
2023-04-23T08:19:58.024Z,23.10
2023-04-23T08:22:24.537Z,20.30
2023-04-23T08:24:51.099Z,20.92
2023-04-23T08:27:17.655Z,17.77
2023-04-23T08:29:44.258Z,18.60
2023-04-23T08:32:10.839Z,14.55
2023-04-23T08:34:37.547Z,16.40
2023-04-23T08:37:04.927Z,16.17
2023-04-23T08:39:34.156Z,17.73
2023-04-23T08:42:16.983Z,15.10
2023-04-23T08:44:46.531Z,17.08
2023-04-23T08:47:18.093Z,17.10
2023-04-23T08:49:46.665Z,14.57
2023-04-23T08:52:19.205Z,14.98
2023-04-23T08:54:49.243Z,12.88
2023-04-23T08:57:17.544Z,13.98
2023-04-23T08:59:45.145Z,12.73
2023-04-23T09:02:11.875Z,12.43
2023-04-23T09:04:39.047Z,13.63
2023-04-23T09:07:08.098Z,12.82
2023-04-23T09:09:35.311Z,13.93
2023-04-23T09:12:02.097Z,13.97
2023-04-23T09:14:28.630Z,10.93
2023-04-23T09:16:55.271Z,12.10
2023-04-23T09:19:22.462Z,13.00
2023-04-23T09:21:49.066Z,13.27
2023-04-23T09:24:16.333Z,12.63
2023-04-23T09:26:47.064Z,14.48
2023-04-23T09:29:19.185Z,12.13
2023-04-23T09:31:49.819Z,12.02
2023-04-23T09:34:20.069Z,11.18
2023-04-23T09:36:50.438Z,11.40
2023-04-23T09:39:18.849Z,13.10
2023-04-23T09:41:48.217Z,13.50
2023-04-23T09:44:18.510Z,10.82
2023-04-23T09:46:45.471Z,13.98
2023-04-23T09:49:13.421Z,14.53
2023-04-23T09:51:45.049Z,9.98
2023-04-23T09:54:21.609Z,10.68
2023-04-23T09:56:54.000Z,13.05
2023-04-23T09:59:36.027Z,8.57
2023-04-23T10:02:13.068Z,9.37
2023-04-23T10:04:40.193Z,12.45
2023-04-23T10:07:19.052Z,9.95
2023-04-23T10:09:47.187Z,8.50
2023-04-23T10:14:45.626Z,8.97
2023-04-23T10:17:12.519Z,9.52
2023-04-23T10:19:41.512Z,8.25
2023-04-23T10:22:19.568Z,8.45
2023-04-23T10:24:52.023Z,8.98
2023-04-23T10:29:49.583Z,10.60
2023-04-23T10:32:17.617Z,8.38
2023-04-23T10:34:45.429Z,7.65
2023-04-23T10:37:12.969Z,12.82
2023-04-23T10:39:43.909Z,11.27
2023-04-23T10:42:13.481Z,9.52
2023-04-23T10:47:16.768Z,9.65
2023-04-23T10:49:44.687Z,8.27
2023-04-23T10:52:20.088Z,10.40
2023-04-23T10:54:50.423Z,7.43
2023-04-23T10:57:16.974Z,12.63
2023-04-23T10:59:54.889Z,6.68
2023-04-23T11:02:24.390Z,10.27
2023-04-23T11:04:58.866Z,7.23
2023-04-23T11:07:32.588Z,7.82
2023-04-23T11:10:00.270Z,7.78
2023-04-23T11:12:32.781Z,6.78
2023-04-23T11:15:00.267Z,9.10
2023-04-23T11:17:32.638Z,7.60
2023-04-23T11:20:10.578Z,9.73
2023-04-23T11:22:38.799Z,7.60
2023-04-23T11:25:09.572Z,8.05
2023-04-23T11:27:39.486Z,3.65
2023-04-23T11:30:11.201Z,5.13
2023-04-23T11:32:37.909Z,4.20
2023-04-23T11:35:05.437Z,6.60
2023-04-23T11:37:31.936Z,8.07
2023-04-23T11:40:06.389Z,5.72
2023-04-23T11:42:32.845Z,5.40
2023-04-23T11:44:59.406Z,7.10
2023-04-23T11:47:26.462Z,10.27
2023-04-23T11:49:53.052Z,8.25
2023-04-23T11:52:19.603Z,8.63
2023-04-23T11:54:46.117Z,8.30
2023-04-23T11:57:14.489Z,7.32
2023-04-23T11:59:41.182Z,6.75
2023-04-23T12:02:07.900Z,7.60
2023-04-23T12:04:34.732Z,9.07
2023-04-23T12:07:03.099Z,11.17
2023-04-23T12:09:36.026Z,4.68
2023-04-23T12:12:02.550Z,5.93
2023-04-23T12:14:30.638Z,6.93
2023-04-23T12:16:59.014Z,8.27
2023-04-23T12:19:31.076Z,4.43
2023-04-23T12:22:02.448Z,7.30
2023-04-23T12:24:31.336Z,5.88
2023-04-23T12:27:00.894Z,8.43
2023-04-23T12:29:29.837Z,5.45
2023-04-23T12:31:59.083Z,6.07
2023-04-23T12:34:25.637Z,5.63
2023-04-23T12:36:55.509Z,6.75
2023-04-23T12:39:23.781Z,8.02
2023-04-23T12:41:56.581Z,3.67
2023-04-23T12:44:23.495Z,5.90
2023-04-23T12:46:57.065Z,4.97
2023-04-23T12:49:24.274Z,7.13
2023-04-23T12:51:52.818Z,8.68
2023-04-23T12:54:19.670Z,6.30
2023-04-23T12:56:46.146Z,5.80
2023-04-23T12:59:12.743Z,5.47
2023-04-23T13:01:39.366Z,7.72
2023-04-23T13:04:06.513Z,6.38
2023-04-23T13:06:33.195Z,6.50
2023-04-23T13:09:02.254Z,4.17
2023-04-23T13:11:29.102Z,6.57
2023-04-23T13:13:55.675Z,5.00
2023-04-23T13:16:22.271Z,4.28
2023-04-23T13:18:51.493Z,7.90
2023-04-23T13:21:18.704Z,4.27
2023-04-23T13:23:45.626Z,6.40
2023-04-23T13:26:12.515Z,4.97
2023-04-23T13:28:39.181Z,5.50
2023-04-23T13:31:06.613Z,6.88
2023-04-23T13:33:33.314Z,5.20
2023-04-23T13:36:01.308Z,7.25
2023-04-23T13:38:28.067Z,8.38
2023-04-23T13:40:54.597Z,6.30
2023-04-23T13:43:21.119Z,7.22
2023-04-23T13:45:47.684Z,4.07
2023-04-23T13:48:15.571Z,6.80
2023-04-23T13:50:46.243Z,6.75
2023-04-23T13:53:13.499Z,5.60
2023-04-23T13:55:40.114Z,6.32
2023-04-23T13:58:06.933Z,7.10
2023-04-23T14:00:34.155Z,6.95
2023-04-23T14:03:00.821Z,3.80
2023-04-23T14:05:27.473Z,6.90
2023-04-23T14:07:53.984Z,4.82
2023-04-23T14:10:20.613Z,5.67
2023-04-23T14:12:47.284Z,5.05
2023-04-23T14:15:14.513Z,6.47
2023-04-23T14:17:42.930Z,5.32
2023-04-23T14:20:10.307Z,5.82
2023-04-23T14:22:36.944Z,4.77
2023-04-23T14:25:09.800Z,4.95
2023-04-23T14:27:44.426Z,5.28
2023-04-23T14:30:16.868Z,4.88
2023-04-23T14:32:43.475Z,5.63
2023-04-23T14:35:10.348Z,5.03
2023-04-23T14:37:36.933Z,4.68
2023-04-23T14:40:03.981Z,5.95
2023-04-23T14:42:30.585Z,7.13
2023-04-23T14:45:00.260Z,5.03
2023-04-23T14:47:26.891Z,6.77
2023-04-23T14:49:53.819Z,4.07
2023-04-23T14:52:20.588Z,2.95
2023-04-23T14:54:47.076Z,5.22
2023-04-23T14:57:13.629Z,5.32
2023-04-23T14:59:40.373Z,8.73
2023-04-23T15:02:07.336Z,6.85
2023-04-23T15:04:35.151Z,6.63
2023-04-23T15:07:01.844Z,10.73
2023-04-23T15:09:28.381Z,5.35
2023-04-23T15:11:55.117Z,7.00
2023-04-23T15:14:32.122Z,3.78
2023-04-23T15:16:58.834Z,6.72
2023-04-23T15:19:25.457Z,6.70
2023-04-23T15:21:52.068Z,4.28
2023-04-23T15:24:18.535Z,5.47
2023-04-23T15:26:49.451Z,5.15
2023-04-23T15:29:16.074Z,4.07
2023-04-23T15:31:42.792Z,5.68
2023-04-23T15:34:09.824Z,3.83
2023-04-23T15:36:37.532Z,4.33
2023-04-23T15:39:04.479Z,7.40
2023-04-23T15:41:31.031Z,5.20
2023-04-23T15:43:57.642Z,4.38
2023-04-23T15:46:24.231Z,6.22
2023-04-23T15:48:50.757Z,6.90
2023-04-23T15:51:17.693Z,4.32
2023-04-23T15:53:44.230Z,5.63
2023-04-23T15:56:10.770Z,4.85
2023-04-23T15:58:37.338Z,5.63
2023-04-23T16:01:05.187Z,5.20
2023-04-23T16:03:31.868Z,5.25
2023-04-23T16:05:58.469Z,4.43
2023-04-23T16:08:24.993Z,4.93
2023-04-23T16:10:51.761Z,4.47
2023-04-23T16:13:18.408Z,6.07
2023-04-23T16:15:45.019Z,5.68
2023-04-23T16:18:11.580Z,6.63
2023-04-23T16:20:38.186Z,8.35
2023-04-23T16:23:06.524Z,6.70
2023-04-23T16:25:33.117Z,6.50
2023-04-23T16:27:59.614Z,8.05
2023-04-23T16:30:26.255Z,5.88
2023-04-23T16:32:52.857Z,6.10
2023-04-23T16:35:19.409Z,7.97
2023-04-23T16:37:45.953Z,9.20
2023-04-23T16:40:15.120Z,6.72
2023-04-23T16:42:42.656Z,8.38
2023-04-23T16:45:09.411Z,6.80
2023-04-23T16:47:35.982Z,6.72
2023-04-23T16:50:02.987Z,4.93
2023-04-23T16:52:29.666Z,6.55
2023-04-23T16:54:56.190Z,5.63
2023-04-23T16:57:23.507Z,6.72
2023-04-23T16:59:51.154Z,8.85
2023-04-23T17:02:19.317Z,7.80
2023-04-23T17:04:46.433Z,7.15
2023-04-23T17:07:13.166Z,6.85
2023-04-23T17:09:39.822Z,8.93
2023-04-23T17:12:06.363Z,5.65
2023-04-23T17:14:32.997Z,4.87
2023-04-23T17:16:59.548Z,5.22
2023-04-23T17:19:26.045Z,5.72
2023-04-23T17:21:52.637Z,6.05
2023-04-23T17:24:19.241Z,4.13
2023-04-23T17:26:47.451Z,4.23
2023-04-23T17:29:13.970Z,4.40
2023-04-23T17:31:40.590Z,3.38
2023-04-23T17:34:07.242Z,4.22
2023-04-23T17:36:33.782Z,6.25
2023-04-23T17:39:00.333Z,4.77
2023-04-23T17:41:26.943Z,4.63
2023-04-23T17:43:53.489Z,5.05
2023-04-23T17:46:20.139Z,4.63
2023-04-23T17:48:46.782Z,3.22
2023-04-23T17:51:13.315Z,3.63
2023-04-23T17:53:39.942Z,2.67
2023-04-23T17:56:06.457Z,3.20
2023-04-23T17:58:33.024Z,3.22
2023-04-23T18:00:59.586Z,4.38
2023-04-23T18:03:27.829Z,3.07
2023-04-23T18:05:55.130Z,5.40
2023-04-23T18:08:21.746Z,3.13
2023-04-23T18:10:48.463Z,6.10
2023-04-23T18:13:15.161Z,4.25
2023-04-23T18:15:42.272Z,3.83
2023-04-23T18:18:09.109Z,4.57
2023-04-23T18:20:38.261Z,3.72
2023-04-23T18:23:06.429Z,3.35
2023-04-23T18:25:33.051Z,3.00
2023-04-23T18:27:59.854Z,3.70
2023-04-23T18:30:26.368Z,2.83
2023-04-23T18:33:19.460Z,3.65
2023-04-23T18:35:49.409Z,3.58
2023-04-23T18:38:34.163Z,2.65
2023-04-23T18:41:02.842Z,2.43
2023-04-23T18:43:29.596Z,3.25
2023-04-23T18:45:56.336Z,4.65
2023-04-23T18:48:41.438Z,5.13
2023-04-23T18:51:31.236Z,5.75
2023-04-23T18:53:57.940Z,3.73
2023-04-23T18:56:25.157Z,3.72
2023-04-23T18:58:51.763Z,3.10
2023-04-23T19:01:18.756Z,3.92
2023-04-23T19:03:45.453Z,4.88
2023-04-23T19:06:12.308Z,4.23
2023-04-23T19:08:38.937Z,4.32
2023-04-23T19:11:06.273Z,3.42
2023-04-23T19:13:32.813Z,4.45
2023-04-23T19:15:59.502Z,7.72
2023-04-23T19:18:26.118Z,4.27
2023-04-23T19:20:52.793Z,5.05
2023-04-23T19:23:19.727Z,3.55
2023-04-23T19:25:46.275Z,6.20
2023-04-23T19:28:13.198Z,5.22
2023-04-23T19:30:39.929Z,3.97
2023-04-23T19:33:06.499Z,5.50
2023-04-23T19:35:33.213Z,4.50
2023-04-23T19:37:59.781Z,5.25
2023-04-23T19:40:26.462Z,3.67
2023-04-23T19:42:53.041Z,4.60
2023-04-23T19:45:19.666Z,4.22
2023-04-23T19:47:46.425Z,3.78
2023-04-23T19:50:13.942Z,5.47
2023-04-23T19:52:41.181Z,4.55
2023-04-23T19:55:08.184Z,4.07
2023-04-23T19:57:35.913Z,3.85
2023-04-23T20:00:02.643Z,3.03
2023-04-23T20:02:34.503Z,4.50
2023-04-23T20:05:01.185Z,3.60
2023-04-23T20:07:27.722Z,5.10
2023-04-23T20:09:54.282Z,6.25
2023-04-23T20:12:20.849Z,4.70
2023-04-23T20:14:47.368Z,5.75
2023-04-23T20:17:13.975Z,7.07
2023-04-23T20:19:40.742Z,5.43
2023-04-23T20:22:07.690Z,5.43
2023-04-23T20:24:35.352Z,5.70
2023-04-23T20:27:02.448Z,6.22
2023-04-23T20:29:30.525Z,5.93
2023-04-23T20:31:57.325Z,5.40
2023-04-23T20:34:23.831Z,5.72
2023-04-23T20:36:51.168Z,5.35
2023-04-23T20:39:22.132Z,6.82
2023-04-23T20:41:50.482Z,6.50
2023-04-23T20:44:17.001Z,6.10
2023-04-23T20:46:45.328Z,7.18
2023-04-23T20:49:12.298Z,6.15
2023-04-23T20:51:38.866Z,10.80
2023-04-23T20:54:05.563Z,7.20
2023-04-23T20:56:32.163Z,6.70
2023-04-23T20:59:00.087Z,7.38
2023-04-23T21:01:26.915Z,7.05
2023-04-23T21:03:53.968Z,6.28
2023-04-23T21:06:21.478Z,8.55
2023-04-23T21:08:47.988Z,6.53
2023-04-23T21:11:16.410Z,7.40
2023-04-23T21:13:43.122Z,8.57
2023-04-23T21:16:11.254Z,5.22
2023-04-23T21:18:38.772Z,4.13
2023-04-23T21:21:05.455Z,3.43
2023-04-23T21:23:31.977Z,4.10
2023-04-23T21:25:58.502Z,3.10
2023-04-23T21:28:25.070Z,3.92
2023-04-23T21:30:53.611Z,2.65
2023-04-23T21:33:23.337Z,1.17
2023-04-23T21:35:51.392Z,1.58
2023-04-23T21:38:18.975Z,1.25
2023-04-23T21:40:45.979Z,1.55
2023-04-23T21:43:12.604Z,0.70
2023-04-23T21:45:39.227Z,0.80
2023-04-23T21:48:05.973Z,0.80
2023-04-23T21:50:32.892Z,0.30
2023-04-23T21:52:59.839Z,0.60
2023-04-23T21:55:28.065Z,0.63
2023-04-23T21:58:03.192Z,1.03
2023-04-23T22:00:40.420Z,1.02
2023-04-23T22:03:07.102Z,1.55
2023-04-23T22:05:34.202Z,1.15
2023-04-23T22:08:00.694Z,2.53
2023-04-23T22:10:27.445Z,1.63
2023-04-23T22:12:54.631Z,1.15
2023-04-23T22:15:21.175Z,0.85
2023-04-23T22:17:50.281Z,1.27
2023-04-23T22:20:18.881Z,1.00
2023-04-23T22:22:46.134Z,0.67
2023-04-23T22:25:13.033Z,1.90
2023-04-23T22:27:41.282Z,1.60
2023-04-23T22:30:09.241Z,2.30
2023-04-23T22:32:36.797Z,2.10
2023-04-23T22:35:03.843Z,2.57
2023-04-23T22:37:31.313Z,2.70
2023-04-23T22:39:58.097Z,2.53
2023-04-23T22:42:24.621Z,3.22
2023-04-23T22:44:51.367Z,2.95
2023-04-23T22:47:17.870Z,4.30
2023-04-23T22:49:44.622Z,2.90
2023-04-23T22:52:15.062Z,3.03
2023-04-23T22:54:41.996Z,3.28
2023-04-23T22:57:09.373Z,3.08
2023-04-23T22:59:36.147Z,2.60
2023-04-23T23:02:02.754Z,2.88
2023-04-23T23:04:29.287Z,2.35
2023-04-23T23:06:55.768Z,2.00
2023-04-23T23:09:22.455Z,2.80
2023-04-23T23:11:48.990Z,2.50
2023-04-23T23:14:16.756Z,2.10
2023-04-23T23:16:43.314Z,1.60
2023-04-23T23:19:09.831Z,2.00
2023-04-23T23:21:36.498Z,1.92
2023-04-23T23:24:03.000Z,2.27
2023-04-23T23:26:29.545Z,3.17
2023-04-23T23:28:56.037Z,2.75
2023-04-23T23:31:25.839Z,2.45
2023-04-23T23:33:53.167Z,2.08
2023-04-23T23:36:19.727Z,3.40
2023-04-23T23:38:46.230Z,1.65
2023-04-23T23:41:12.827Z,2.42
2023-04-23T23:43:39.645Z,2.85
2023-04-23T23:46:06.414Z,2.08
2023-04-23T23:48:32.959Z,3.23
2023-04-23T23:50:59.511Z,2.20
2023-04-23T23:53:26.365Z,3.05
2023-04-23T23:55:52.893Z,3.53
2023-04-23T23:58:19.429Z,2.72
